Time;durP1;ratioP1;P1;durP2;ratioP2;P2;SDS_P1;SDS_P2;PMS_P1;PMS_P2;Temp;Humidity;BMP_temperature;BMP_pressure;BME280_temperature;BME280_humidity;BME280_pressure;Samples;Min_cycle;Max_cycle;Signal;HPM_P1;HPM_P2
2023/01/02 00:00:22;;;;;;;20.03;6.37;;;12.40;99.90;;;;;;5252264;28;20939;-51
2023/01/02 00:02:52;;;;;;;11.03;6.07;;;12.30;99.90;;;;;;5261528;28;20464;-50
2023/01/02 00:05:23;;;;;;;10.57;4.30;;;12.30;99.90;;;;;;5252036;28;20459;-49
2023/01/02 00:07:54;;;;;;;15.30;4.77;;;12.30;99.90;;;;;;5257860;28;20198;-50
2023/01/02 00:10:25;;;;;;;17.53;4.27;;;12.50;99.90;;;;;;5261418;28;20197;-49
2023/01/02 00:12:56;;;;;;;7.60;4.10;;;12.40;99.90;;;;;;5242041;28;20641;-51
2023/01/02 00:15:27;;;;;;;10.20;4.40;;;12.40;99.90;;;;;;5265753;28;20186;-51
2023/01/02 00:17:58;;;;;;;12.23;4.50;;;12.30;99.90;;;;;;5261218;28;20761;-50
2023/01/02 00:20:28;;;;;;;8.87;5.37;;;12.30;99.90;;;;;;5265061;28;20257;-49
2023/01/02 00:23:00;;;;;;;8.20;5.67;;;12.40;99.90;;;;;;5259779;28;20569;-50
2023/01/02 00:25:33;;;;;;;10.97;4.50;;;12.30;99.90;;;;;;5260625;28;20203;-51
2023/01/02 00:28:04;;;;;;;18.40;6.63;;;12.30;99.90;;;;;;5256900;28;20494;-49
2023/01/02 00:30:37;;;;;;;10.53;5.90;;;12.20;99.90;;;;;;5259453;28;20495;-51
2023/01/02 00:33:08;;;;;;;8.27;5.60;;;12.20;99.90;;;;;;5262896;28;20178;-50
2023/01/02 00:35:38;;;;;;;8.90;5.70;;;12.20;99.90;;;;;;5261342;28;20435;-50
2023/01/02 00:38:09;;;;;;;15.67;5.77;;;12.30;99.90;;;;;;5258075;28;20581;-50
2023/01/02 00:40:41;;;;;;;11.80;5.57;;;12.30;99.90;;;;;;5258639;28;20189;-50
2023/01/02 00:43:11;;;;;;;12.90;5.10;;;12.30;99.90;;;;;;5258769;28;20279;-49
2023/01/02 00:45:42;;;;;;;8.70;5.20;;;12.30;99.90;;;;;;5261318;28;20779;-50
2023/01/02 00:48:13;;;;;;;15.73;5.60;;;12.20;99.90;;;;;;5262088;28;20616;-49
2023/01/02 00:50:44;;;;;;;10.93;5.67;;;12.20;99.90;;;;;;5261561;28;20485;-51
2023/01/02 00:53:15;;;;;;;12.27;5.10;;;12.30;99.90;;;;;;5243043;28;20272;-50
2023/01/02 00:55:46;;;;;;;10.17;4.77;;;12.30;99.90;;;;;;5255891;28;20644;-49
2023/01/02 00:58:16;;;;;;;6.73;4.40;;;12.40;99.90;;;;;;5251136;28;20563;-51
2023/01/02 01:00:49;;;;;;;13.20;4.43;;;12.40;99.90;;;;;;5256408;28;20245;-48
2023/01/02 01:03:19;;;;;;;7.47;4.70;;;12.40;99.90;;;;;;5254881;28;20279;-48
2023/01/02 01:05:50;;;;;;;9.67;4.60;;;12.30;99.90;;;;;;5267840;28;20839;-51
2023/01/02 01:08:21;;;;;;;6.30;4.43;;;12.30;99.90;;;;;;5265762;28;20205;-51
2023/01/02 01:10:52;;;;;;;10.87;5.10;;;12.30;99.90;;;;;;5253449;28;20572;-50
2023/01/02 01:13:22;;;;;;;12.20;5.80;;;12.20;99.90;;;;;;5255187;28;20185;-49
2023/01/02 01:15:53;;;;;;;12.70;5.47;;;12.20;99.90;;;;;;5253579;28;20189;-50
2023/01/02 01:18:24;;;;;;;13.20;5.30;;;12.20;99.90;;;;;;5252499;28;20303;-49
2023/01/02 01:20:54;;;;;;;10.73;5.10;;;12.20;99.90;;;;;;5264877;28;20270;-49
2023/01/02 01:23:25;;;;;;;24.17;5.70;;;12.10;99.90;;;;;;5270422;28;20650;-50
2023/01/02 01:25:56;;;;;;;9.30;4.83;;;12.10;99.90;;;;;;5258437;28;20174;-49
2023/01/02 01:28:27;;;;;;;8.87;4.00;;;12.20;99.90;;;;;;5257275;28;20292;-49
2023/01/02 01:31:06;;;;;;;24.43;4.80;;;12.20;99.90;;;;;;5261800;28;20673;-49
2023/01/02 01:33:39;;;;;;;6.37;4.33;;;12.20;99.90;;;;;;5259407;28;20189;-49
2023/01/02 01:36:16;;;;;;;9.87;4.63;;;12.20;99.90;;;;;;5261748;28;20998;-50
2023/01/02 01:38:47;;;;;;;10.73;4.20;;;12.20;99.90;;;;;;5265631;28;20463;-49
2023/01/02 01:41:21;;;;;;;11.10;4.83;;;12.20;99.90;;;;;;5264020;28;20424;-50
2023/01/02 01:43:57;;;;;;;6.77;3.67;;;12.30;99.90;;;;;;5267094;28;20431;-49
2023/01/02 01:46:37;;;;;;;8.77;3.70;;;12.20;99.90;;;;;;5261759;28;20451;-51
2023/01/02 01:49:27;;;;;;;7.60;3.10;;;12.30;99.90;;;;;;5264594;28;20466;-50
2023/01/02 01:52:00;;;;;;;12.27;3.80;;;12.40;99.90;;;;;;5261805;28;21575;-51
2023/01/02 01:54:39;;;;;;;4.87;3.57;;;12.40;99.90;;;;;;5261813;28;20443;-50
2023/01/02 01:57:19;;;;;;;5.43;3.67;;;12.50;99.90;;;;;;5264011;28;20550;-51
2023/01/02 01:59:50;;;;;;;7.50;3.70;;;12.50;99.90;;;;;;5262341;28;20444;-48
2023/01/02 02:02:22;;;;;;;4.97;3.40;;;12.40;99.90;;;;;;5260786;28;20448;-48
2023/01/02 02:04:55;;;;;;;3.87;3.40;;;12.50;99.90;;;;;;5260485;28;20420;-49
2023/01/02 02:07:26;;;;;;;8.53;3.43;;;12.40;99.90;;;;;;5260346;28;20497;-47
2023/01/02 02:10:08;;;;;;;8.43;4.03;;;12.40;99.90;;;;;;5267483;28;20466;-47
2023/01/02 02:12:38;;;;;;;5.20;3.47;;;12.40;99.90;;;;;;5259048;28;21024;-47
2023/01/02 02:15:15;;;;;;;17.43;3.77;;;12.60;99.90;;;;;;5261826;28;20452;-48
2023/01/02 02:17:46;;;;;;;8.60;3.10;;;12.50;99.90;;;;;;5266471;28;20208;-47
2023/01/02 02:20:40;;;;;;;3.87;3.60;;;12.50;99.90;;;;;;5268605;28;20978;-49
2023/01/02 02:23:55;;;;;;;12.47;4.33;;;12.40;99.90;;;;;;5239746;28;20200;-46
2023/01/02 02:26:35;;;;;;;4.80;3.20;;;12.40;99.90;;;;;;5209129;28;20997;-48
2023/01/02 02:29:08;;;;;;;14.50;3.50;;;12.30;99.90;;;;;;5257596;28;20543;-47
2023/01/02 02:31:57;;;;;;;6.20;3.33;;;12.30;99.90;;;;;;5256955;28;20812;-48
2023/01/02 02:34:54;;;;;;;5.50;3.03;;;12.40;99.90;;;;;;5260065;28;20811;-48
2023/01/02 02:37:50;;;;;;;8.93;3.83;;;12.30;99.90;;;;;;5267839;28;20460;-47
2023/01/02 02:40:32;;;;;;;8.00;3.93;;;12.30;99.90;;;;;;5257520;28;20436;-48
2023/01/02 02:43:21;;;;;;;7.00;4.13;;;12.20;99.90;;;;;;5256486;28;20439;-47
2023/01/02 02:46:22;;;;;;;12.60;3.90;;;12.20;99.90;;;;;;5262530;28;20431;-52
2023/01/02 02:49:16;;;;;;;18.43;9.30;;;12.40;99.90;;;;;;5258807;28;20498;-47
2023/01/02 02:52:03;;;;;;;57.13;27.57;;;12.30;99.90;;;;;;5261460;28;20489;-47
2023/01/02 02:54:48;;;;;;;33.30;12.93;;;12.30;99.90;;;;;;5271897;28;20876;-47
2023/01/02 02:57:20;;;;;;;24.23;8.67;;;12.30;99.90;;;;;;5268628;28;20467;-48
2023/01/02 02:59:52;;;;;;;64.77;29.80;;;12.40;99.90;;;;;;5262827;28;21009;-53
2023/01/02 03:02:22;;;;;;;69.83;23.80;;;12.50;99.90;;;;;;5260246;28;20509;-50
2023/01/02 03:04:58;;;;;;;25.83;14.70;;;12.40;99.90;;;;;;5266042;28;20453;-53
2023/01/02 03:08:02;;;;;;;49.03;22.87;;;12.50;99.90;;;;;;5264081;28;20208;-48
2023/01/02 03:10:44;;;;;;;22.83;10.40;;;12.60;99.90;;;;;;5266426;28;20443;-49
2023/01/02 03:13:36;;;;;;;26.70;16.23;;;12.60;99.90;;;;;;5262412;28;20446;-49
2023/01/02 03:16:19;;;;;;;13.93;7.47;;;12.70;99.90;;;;;;5259459;28;20507;-49
2023/01/02 03:19:01;;;;;;;10.43;5.73;;;12.70;99.90;;;;;;5256420;28;20475;-48
2023/01/02 03:21:40;;;;;;;10.43;6.13;;;12.60;99.90;;;;;;5251762;28;20421;-48
2023/01/02 03:24:15;;;;;;;29.77;12.77;;;12.60;99.90;;;;;;5263344;28;20466;-48
2023/01/02 03:26:50;;;;;;;28.60;13.70;;;12.70;99.90;;;;;;5269187;28;20484;-49
2023/01/02 03:29:39;;;;;;;17.47;7.33;;;12.70;99.90;;;;;;5248348;28;20461;-47
2023/01/02 03:32:18;;;;;;;8.93;3.63;;;12.80;99.90;;;;;;5265010;28;20519;-48
2023/01/02 03:34:50;;;;;;;5.50;3.63;;;12.80;99.90;;;;;;5256591;28;20446;-49
2023/01/02 03:37:28;;;;;;;385.93;206.87;;;12.80;99.90;;;;;;5265302;28;20509;-47
2023/01/02 03:40:03;;;;;;;55.47;23.30;;;12.80;99.90;;;;;;5269192;28;20563;-48
2023/01/02 03:42:40;;;;;;;5.90;4.80;;;12.80;99.90;;;;;;5265287;28;20450;-49
2023/01/02 03:45:34;;;;;;;36.57;14.63;;;12.80;99.90;;;;;;5261897;28;20427;-47
2023/01/02 03:48:05;;;;;;;11.23;4.27;;;12.80;99.90;;;;;;5264916;28;20544;-48
2023/01/02 03:50:44;;;;;;;4.43;3.60;;;12.90;99.90;;;;;;5268869;28;20440;-49
2023/01/02 03:53:14;;;;;;;5.80;3.97;;;13.00;99.90;;;;;;5271931;28;20600;-48
2023/01/02 03:56:23;;;;;;;11.47;3.37;;;12.90;99.90;;;;;;5274503;28;20538;-48
2023/01/02 03:59:03;;;;;;;9.20;3.40;;;12.90;99.90;;;;;;5238151;28;20222;-47
2023/01/02 04:01:37;;;;;;;4.77;3.10;;;12.70;99.90;;;;;;5272782;28;20450;-49
2023/01/02 04:04:16;;;;;;;8.30;4.50;;;12.70;99.90;;;;;;5267206;28;20431;-47
2023/01/02 04:06:54;;;;;;;9.10;3.90;;;13.00;99.90;;;;;;5270033;28;20435;-50
2023/01/02 04:09:27;;;;;;;5.53;4.07;;;13.10;99.90;;;;;;5268029;28;20473;-47
2023/01/02 04:12:05;;;;;;;8.37;3.90;;;12.90;99.90;;;;;;5259394;28;20440;-47
2023/01/02 04:15:12;;;;;;;7.67;4.10;;;12.90;99.90;;;;;;5263909;28;20455;-49
2023/01/02 04:18:15;;;;;;;11.63;4.20;;;13.00;99.90;;;;;;5227317;28;20576;-48
2023/01/02 04:20:49;;;;;;;5.17;3.00;;;12.90;99.90;;;;;;5255201;28;20523;-51
2023/01/02 04:23:25;;;;;;;5.50;3.57;;;13.00;99.90;;;;;;5271302;28;20435;-48
2023/01/02 04:26:24;;;;;;;6.27;3.07;;;12.80;99.90;;;;;;5266045;28;21000;-48
2023/01/02 04:28:55;;;;;;;5.37;4.00;;;12.80;99.90;;;;;;5255617;28;20967;-50
2023/01/02 04:31:50;;;;;;;4.77;4.33;;;12.80;99.90;;;;;;5267343;28;20472;-50
2023/01/02 04:34:24;;;;;;;5.13;3.70;;;12.90;99.90;;;;;;5264553;28;20217;-48
2023/01/02 04:36:55;;;;;;;6.10;4.00;;;12.80;99.90;;;;;;5267487;28;20491;-47
2023/01/02 04:39:26;;;;;;;6.30;3.70;;;13.00;99.90;;;;;;5267290;28;20459;-48
2023/01/02 04:41:57;;;;;;;7.43;2.93;;;13.10;99.90;;;;;;5262295;28;20178;-49
2023/01/02 04:44:28;;;;;;;6.17;3.93;;;13.00;99.90;;;;;;5270034;28;20492;-49
2023/01/02 04:46:59;;;;;;;10.77;3.63;;;13.20;99.90;;;;;;5263081;28;20182;-49
2023/01/02 04:49:29;;;;;;;12.60;3.83;;;13.10;99.90;;;;;;5271054;28;20202;-48
2023/01/02 04:52:00;;;;;;;7.23;4.27;;;13.30;99.90;;;;;;5264250;28;20189;-48
2023/01/02 04:54:30;;;;;;;3.97;3.20;;;13.20;99.90;;;;;;5265128;28;20239;-50
2023/01/02 04:57:01;;;;;;;6.00;3.90;;;13.10;99.90;;;;;;5262341;28;20223;-48
2023/01/02 04:59:32;;;;;;;10.33;4.10;;;13.10;99.90;;;;;;5274647;28;20565;-48
2023/01/02 05:02:02;;;;;;;7.97;3.60;;;13.10;99.90;;;;;;5265356;28;20184;-49
2023/01/02 05:04:33;;;;;;;6.43;3.73;;;13.10;99.90;;;;;;5273963;28;20261;-48
2023/01/02 05:07:04;;;;;;;5.17;4.10;;;13.00;99.90;;;;;;5263995;28;20177;-50
2023/01/02 05:09:34;;;;;;;5.07;3.87;;;13.00;99.90;;;;;;5261868;28;20198;-48
2023/01/02 05:12:05;;;;;;;6.00;4.63;;;13.00;99.90;;;;;;5262453;28;20183;-49
2023/01/02 05:14:36;;;;;;;3.73;3.50;;;13.00;99.90;;;;;;5263620;28;20661;-49
2023/01/02 05:17:07;;;;;;;7.60;3.70;;;12.90;99.90;;;;;;5270685;28;20238;-48
2023/01/02 05:19:37;;;;;;;6.00;3.70;;;13.00;99.90;;;;;;5269427;28;20248;-50
2023/01/02 05:25:00;;;;;;;4.33;3.80;;;13.00;99.90;;;;;;5270119;28;20216;-48
2023/01/02 05:27:30;;;;;;;3.90;3.60;;;13.00;99.90;;;;;;5269366;28;20968;-48
2023/01/02 05:30:02;;;;;;;4.20;3.80;;;13.10;99.90;;;;;;5267029;28;20194;-48
2023/01/02 05:32:33;;;;;;;7.30;3.50;;;13.10;99.90;;;;;;5265505;28;20550;-48
2023/01/02 05:35:04;;;;;;;8.13;3.37;;;13.00;99.90;;;;;;5260139;28;20433;-48
2023/01/02 05:37:35;;;;;;;7.40;4.00;;;13.10;99.90;;;;;;5266527;28;22025;-48
2023/01/02 05:40:06;;;;;;;6.10;3.20;;;13.00;99.90;;;;;;5266716;28;20979;-47
2023/01/02 05:42:37;;;;;;;3.90;3.00;;;13.00;99.90;;;;;;5265144;28;20529;-48
2023/01/02 05:45:08;;;;;;;3.37;3.17;;;13.00;99.90;;;;;;5262997;28;20511;-48
2023/01/02 05:47:39;;;;;;;6.17;3.90;;;13.00;99.90;;;;;;5256471;28;20205;-49
2023/01/02 05:50:09;;;;;;;4.00;3.60;;;13.00;99.90;;;;;;5258597;28;20432;-47
2023/01/02 05:52:40;;;;;;;6.10;3.33;;;13.00;99.90;;;;;;5263014;28;20210;-47
2023/01/02 05:55:11;;;;;;;5.70;4.30;;;12.90;99.90;;;;;;5262915;28;20635;-49
2023/01/02 05:57:42;;;;;;;5.37;3.60;;;12.90;99.90;;;;;;5263934;28;20214;-48
2023/01/02 06:00:13;;;;;;;5.37;3.73;;;12.90;99.90;;;;;;5256082;28;20193;-50
2023/01/02 06:02:43;;;;;;;6.43;3.70;;;12.80;99.90;;;;;;5252103;28;20194;-50
2023/01/02 06:05:15;;;;;;;8.10;4.23;;;13.10;99.90;;;;;;5260858;28;20435;-47
2023/01/02 06:07:45;;;;;;;3.40;3.10;;;13.00;99.90;;;;;;5263412;28;20974;-49
2023/01/02 06:10:16;;;;;;;7.13;2.90;;;12.90;99.90;;;;;;5262308;28;20413;-48
2023/01/02 06:12:47;;;;;;;3.97;3.57;;;12.90;99.90;;;;;;5264752;28;20228;-48
2023/01/02 06:15:17;;;;;;;9.40;3.60;;;12.90;99.90;;;;;;5261646;28;20204;-48
2023/01/02 06:17:48;;;;;;;6.07;3.57;;;12.90;99.90;;;;;;5260219;28;20225;-47
2023/01/02 06:20:19;;;;;;;3.23;2.70;;;12.90;99.90;;;;;;5262015;28;20238;-49
2023/01/02 06:22:49;;;;;;;5.07;3.20;;;12.90;99.90;;;;;;5266198;28;20189;-48
2023/01/02 06:25:20;;;;;;;5.03;3.80;;;12.80;99.90;;;;;;5263908;28;20189;-47
2023/01/02 06:27:51;;;;;;;3.20;2.90;;;12.80;99.90;;;;;;5264893;28;20220;-47
2023/01/02 06:30:22;;;;;;;2.57;2.37;;;12.80;99.90;;;;;;5266408;28;20189;-50
2023/01/02 06:32:54;;;;;;;7.97;3.83;;;12.80;99.90;;;;;;5267540;28;20185;-49
2023/01/02 06:35:25;;;;;;;4.70;3.30;;;13.10;99.90;;;;;;5265846;28;20266;-47
2023/01/02 06:37:55;;;;;;;4.00;3.60;;;13.10;99.90;;;;;;5264324;28;20471;-48
2023/01/02 06:40:26;;;;;;;8.03;3.20;;;13.00;99.90;;;;;;5268216;28;20219;-52
2023/01/02 06:42:57;;;;;;;4.33;3.40;;;13.20;99.90;;;;;;5262673;28;20243;-48
2023/01/02 06:45:28;;;;;;;8.43;3.43;;;13.10;99.90;;;;;;5265142;28;20183;-47
2023/01/02 06:47:59;;;;;;;3.80;3.10;;;13.10;99.90;;;;;;5259760;28;20550;-47
2023/01/02 06:50:29;;;;;;;5.20;3.40;;;13.40;99.90;;;;;;5263014;28;20561;-47
2023/01/02 06:53:00;;;;;;;4.90;3.30;;;13.60;99.90;;;;;;5259052;28;21204;-48
2023/01/02 06:55:31;;;;;;;8.83;3.30;;;13.50;99.90;;;;;;5263626;28;20429;-49
2023/01/02 06:58:02;;;;;;;4.50;3.43;;;13.40;99.90;;;;;;5266180;28;20209;-47
2023/01/02 07:00:32;;;;;;;6.40;2.90;;;13.30;99.90;;;;;;5265987;28;20185;-49
2023/01/02 07:03:03;;;;;;;5.37;3.23;;;13.30;99.90;;;;;;5263464;28;20669;-49
2023/01/02 07:05:34;;;;;;;3.80;3.40;;;13.30;99.90;;;;;;5265569;28;20177;-49
2023/01/02 07:08:04;;;;;;;4.80;3.43;;;13.20;99.90;;;;;;5259852;28;20208;-47
2023/01/02 07:10:35;;;;;;;3.23;3.03;;;13.30;99.90;;;;;;5258779;28;20200;-48
2023/01/02 07:13:06;;;;;;;8.10;2.80;;;13.50;99.90;;;;;;5260065;28;20181;-48
2023/01/02 07:15:37;;;;;;;3.40;3.00;;;13.40;99.90;;;;;;5265182;28;20181;-48
2023/01/02 07:18:08;;;;;;;7.67;2.87;;;13.40;99.90;;;;;;5261401;28;20201;-51
2023/01/02 07:20:38;;;;;;;6.47;3.03;;;13.30;99.90;;;;;;5263631;28;20188;-53
2023/01/02 07:23:09;;;;;;;3.03;2.67;;;13.30;99.90;;;;;;5261037;28;20592;-49
2023/01/02 07:25:40;;;;;;;5.83;3.30;;;13.30;99.90;;;;;;5256795;28;20664;-48
2023/01/02 07:28:10;;;;;;;5.30;2.50;;;13.30;99.90;;;;;;5264124;28;20584;-49
2023/01/02 07:30:41;;;;;;;2.50;2.30;;;13.30;99.90;;;;;;5261138;28;20193;-50
2023/01/02 07:33:12;;;;;;;3.30;3.00;;;13.30;99.90;;;;;;5262453;28;20219;-48
2023/01/02 07:35:44;;;;;;;3.50;3.20;;;13.30;99.90;;;;;;5260911;28;20189;-49
2023/01/02 07:38:14;;;;;;;4.50;3.50;;;13.40;99.90;;;;;;5262099;28;20284;-49
2023/01/02 07:40:45;;;;;;;3.40;3.20;;;13.30;99.90;;;;;;5268639;28;20980;-50
2023/01/02 07:43:16;;;;;;;4.63;2.70;;;13.40;99.90;;;;;;5264463;28;20579;-49
2023/01/02 07:45:47;;;;;;;7.47;3.70;;;13.30;99.90;;;;;;5265185;28;20584;-50
2023/01/02 07:48:17;;;;;;;6.10;3.90;;;13.30;99.90;;;;;;5265076;28;20231;-48
2023/01/02 07:50:48;;;;;;;4.07;3.50;;;13.30;99.90;;;;;;5260771;28;20189;-49
2023/01/02 07:53:19;;;;;;;12.60;3.43;;;13.30;99.90;;;;;;5263453;28;20654;-48
2023/01/02 07:55:57;;;;;;;5.63;3.10;;;13.40;99.90;;;;;;5263570;28;20185;-50
2023/01/02 07:58:28;;;;;;;5.23;3.60;;;13.40;99.90;;;;;;5258691;28;20209;-50
2023/01/02 08:01:05;;;;;;;4.77;2.97;;;13.40;99.90;;;;;;5262099;28;20443;-49
2023/01/02 08:03:36;;;;;;;4.60;3.87;;;13.40;99.90;;;;;;5258039;28;20267;-50
2023/01/02 08:06:12;;;;;;;5.93;3.90;;;13.50;99.90;;;;;;5257082;28;20587;-50
2023/01/02 08:08:43;;;;;;;6.27;4.00;;;13.60;99.90;;;;;;5261011;28;20489;-50
2023/01/02 08:11:20;;;;;;;6.50;2.70;;;13.70;99.90;;;;;;5258281;28;20483;-49
2023/01/02 08:13:51;;;;;;;3.40;3.10;;;13.70;99.90;;;;;;5259304;28;20822;-50
2023/01/02 08:16:21;;;;;;;4.07;3.20;;;13.80;99.90;;;;;;5263769;28;20450;-50
2023/01/02 08:18:56;;;;;;;6.90;3.40;;;13.80;99.90;;;;;;5261823;28;20217;-49
2023/01/02 08:21:27;;;;;;;2.80;2.60;;;13.90;99.90;;;;;;5263782;28;20246;-50
2023/01/02 08:23:58;;;;;;;7.43;3.40;;;14.10;99.90;;;;;;5259916;28;20443;-47
2023/01/02 08:26:28;;;;;;;4.87;2.63;;;14.00;99.90;;;;;;5258201;28;20187;-49
2023/01/02 08:28:59;;;;;;;3.80;2.97;;;14.10;99.90;;;;;;5264936;28;20209;-51
2023/01/02 08:31:30;;;;;;;4.23;3.40;;;14.10;99.90;;;;;;5262451;28;20186;-49
2023/01/02 08:34:01;;;;;;;3.53;3.23;;;14.10;99.90;;;;;;5265445;28;20260;-49
2023/01/02 08:36:31;;;;;;;6.00;3.73;;;14.10;99.90;;;;;;5242541;28;20962;-53
2023/01/02 08:39:02;;;;;;;4.93;2.70;;;14.10;99.90;;;;;;5257929;28;20247;-50
2023/01/02 08:41:35;;;;;;;4.97;2.87;;;14.20;99.90;;;;;;5261530;28;20663;-50
2023/01/02 08:44:06;;;;;;;6.40;2.70;;;14.20;99.90;;;;;;5264580;28;20277;-48
2023/01/02 08:46:37;;;;;;;3.90;2.93;;;14.30;99.90;;;;;;5270615;28;20483;-49
2023/01/02 08:49:07;;;;;;;4.53;3.40;;;14.30;99.90;;;;;;5265445;28;20526;-49
2023/01/02 08:51:38;;;;;;;3.17;2.90;;;14.30;99.90;;;;;;5266396;28;20193;-50
2023/01/02 08:54:09;;;;;;;7.07;3.70;;;14.40;99.90;;;;;;5264651;28;20178;-48
2023/01/02 08:56:40;;;;;;;7.90;2.97;;;14.40;99.90;;;;;;5264862;28;20190;-48
2023/01/02 08:59:11;;;;;;;9.37;3.40;;;14.60;99.90;;;;;;5268443;28;20217;-48
2023/01/02 09:01:42;;;;;;;6.17;2.80;;;14.50;99.90;;;;;;5270328;28;20429;-49
2023/01/02 09:04:13;;;;;;;11.00;3.73;;;14.60;99.90;;;;;;5265278;28;20439;-50
2023/01/02 09:06:44;;;;;;;15.47;4.33;;;14.60;99.90;;;;;;5266328;28;20231;-54
2023/01/02 09:09:16;;;;;;;9.57;3.83;;;14.60;99.90;;;;;;5260310;28;20240;-48
2023/01/02 09:11:51;;;;;;;10.03;3.23;;;14.60;99.90;;;;;;5257083;28;20455;-49
2023/01/02 09:14:22;;;;;;;8.20;2.90;;;14.70;99.90;;;;;;5260329;28;20501;-50
2023/01/02 09:16:52;;;;;;;4.13;2.90;;;14.70;99.90;;;;;;5261811;28;20511;-53
2023/01/02 09:19:25;;;;;;;7.30;3.40;;;14.70;99.90;;;;;;5270587;28;20690;-50
2023/01/02 09:21:56;;;;;;;2.90;2.03;;;14.70;99.90;;;;;;5261758;28;20622;-49
2023/01/02 09:24:27;;;;;;;2.90;2.70;;;14.80;99.90;;;;;;5261662;28;20439;-50
2023/01/02 09:26:58;;;;;;;4.03;2.33;;;14.90;99.90;;;;;;5265764;28;20193;-49
2023/01/02 09:29:28;;;;;;;4.43;2.73;;;14.90;99.90;;;;;;5265165;28;20467;-49
2023/01/02 09:32:00;;;;;;;3.80;2.00;;;15.00;99.90;;;;;;5266101;28;20280;-49
2023/01/02 09:34:30;;;;;;;42.30;8.10;;;14.90;99.90;;;;;;5255761;28;20296;-50
2023/01/02 09:37:01;;;;;;;20.87;6.97;;;15.00;99.90;;;;;;5265953;28;20902;-48
2023/01/02 09:39:32;;;;;;;9.33;3.50;;;15.00;99.90;;;;;;5265140;28;20593;-50
2023/01/02 09:42:07;;;;;;;29.30;6.70;;;15.10;99.90;;;;;;5269096;28;20475;-51
2023/01/02 09:44:51;;;;;;;10.17;4.83;;;15.10;99.90;;;;;;5263138;28;20257;-50
2023/01/02 09:47:29;;;;;;;7.70;3.57;;;15.10;99.90;;;;;;5262355;28;20484;-51
2023/01/02 09:50:03;;;;;;;4.53;3.20;;;15.20;99.90;;;;;;5260837;28;20469;-49
2023/01/02 09:52:47;;;;;;;2.67;2.47;;;15.20;99.90;;;;;;5263795;28;20482;-49
2023/01/02 09:55:33;;;;;;;6.70;2.43;;;15.30;99.90;;;;;;5261640;28;20435;-52
2023/01/02 09:58:16;;;;;;;3.17;2.50;;;15.30;99.50;;;;;;5261333;28;20478;-50
2023/01/02 10:00:49;;;;;;;3.30;2.20;;;15.40;99.40;;;;;;5267227;28;21003;-49
2023/01/02 10:03:41;;;;;;;12.33;2.10;;;15.40;99.00;;;;;;5263493;28;20463;-49
2023/01/02 10:06:23;;;;;;;3.13;1.90;;;15.50;98.10;;;;;;5261958;28;20474;-50
2023/01/02 10:09:15;;;;;;;6.83;2.60;;;15.60;97.60;;;;;;5262378;28;20454;-54
2023/01/02 10:12:01;;;;;;;5.30;2.10;;;15.60;97.00;;;;;;5259403;28;20447;-50
2023/01/02 10:15:04;;;;;;;2.97;2.40;;;15.60;96.20;;;;;;5267317;28;20439;-49
2023/01/02 10:17:47;;;;;;;4.73;2.40;;;15.70;95.80;;;;;;5249839;28;20475;-50
2023/01/02 10:20:29;;;;;;;7.03;1.97;;;15.80;95.10;;;;;;5268198;28;20500;-49
2023/01/02 10:23:05;;;;;;;6.20;3.40;;;15.80;94.70;;;;;;5243390;28;20501;-51
2023/01/02 10:25:41;;;;;;;2.33;2.13;;;15.90;94.60;;;;;;5258341;28;20496;-51
2023/01/02 10:28:31;;;;;;;9.53;3.10;;;15.90;94.30;;;;;;5250632;28;20557;-50
2023/01/02 10:31:10;;;;;;;2.93;2.50;;;16.00;94.20;;;;;;5258339;28;20526;-49
2023/01/02 10:34:15;;;;;;;2.93;2.60;;;16.10;93.90;;;;;;5274075;28;21358;-51
2023/01/02 10:36:47;;;;;;;2.90;2.67;;;16.00;93.60;;;;;;5246448;28;20447;-52
2023/01/02 10:39:23;;;;;;;3.17;2.60;;;15.90;94.00;;;;;;5261083;28;20471;-48
2023/01/02 10:41:57;;;;;;;7.90;1.90;;;15.90;93.60;;;;;;5263721;28;20475;-49
2023/01/02 10:44:33;;;;;;;7.10;3.40;;;15.90;93.60;;;;;;5267040;28;21879;-48
2023/01/02 10:47:28;;;;;;;20.13;3.47;;;15.80;93.40;;;;;;5268681;28;20431;-50
2023/01/02 10:50:02;;;;;;;4.80;2.37;;;15.80;93.40;;;;;;5267190;28;21134;-49
2023/01/02 10:52:38;;;;;;;4.10;2.60;;;15.70;93.20;;;;;;5266452;28;20452;-51
2023/01/02 10:55:08;;;;;;;3.77;2.20;;;15.70;93.50;;;;;;5263112;28;20480;-54
2023/01/02 10:57:45;;;;;;;4.63;2.00;;;15.60;93.60;;;;;;5265829;28;20471;-51
2023/01/02 11:00:18;;;;;;;2.33;1.93;;;15.60;93.90;;;;;;5257502;28;20181;-50
2023/01/02 11:02:59;;;;;;;3.83;2.20;;;15.50;94.00;;;;;;5260514;28;20458;-51
2023/01/02 11:05:31;;;;;;;17.80;1.90;;;15.60;94.20;;;;;;5264492;28;22437;-50
2023/01/02 11:08:11;;;;;;;7.30;2.30;;;15.60;93.80;;;;;;5271380;28;20440;-49
2023/01/02 11:10:42;;;;;;;1.93;1.83;;;15.70;93.80;;;;;;5267265;28;20431;-48
2023/01/02 11:13:16;;;;;;;6.80;2.80;;;15.70;94.00;;;;;;5259267;28;20445;-54
2023/01/02 11:15:56;;;;;;;8.60;2.53;;;15.70;93.60;;;;;;5270315;28;20510;-50
2023/01/02 11:18:33;;;;;;;4.17;2.70;;;15.70;93.60;;;;;;5260573;28;20467;-50
2023/01/02 11:21:06;;;;;;;3.30;2.30;;;15.70;93.90;;;;;;5264222;28;20482;-50
2023/01/02 11:23:43;;;;;;;8.70;3.20;;;15.60;95.50;;;;;;5258339;28;20535;-49
2023/01/02 11:26:21;;;;;;;3.33;2.60;;;15.50;97.20;;;;;;5259740;28;20431;-48
2023/01/02 11:28:54;;;;;;;6.73;2.20;;;15.40;98.90;;;;;;5265235;28;20472;-52
2023/01/02 11:31:24;;;;;;;4.03;2.77;;;15.40;99.90;;;;;;5255130;28;21107;-50
2023/01/02 11:34:09;;;;;;;5.23;2.53;;;15.20;99.90;;;;;;5262401;28;20452;-49
2023/01/02 11:36:43;;;;;;;6.13;2.33;;;15.20;99.90;;;;;;5269367;28;20696;-49
2023/01/02 11:39:23;;;;;;;5.93;2.97;;;15.10;99.90;;;;;;5270726;28;20463;-50
2023/01/02 11:45:13;;;;;;;9.07;2.43;;;15.20;99.90;;;;;;5261029;28;20431;-51
2023/01/02 11:47:47;;;;;;;7.77;2.73;;;15.30;99.90;;;;;;5268701;28;21562;-52
2023/01/02 11:50:25;;;;;;;4.87;2.67;;;15.30;99.90;;;;;;5270387;28;20779;-53
2023/01/02 11:53:06;;;;;;;6.07;2.30;;;15.20;99.90;;;;;;5276503;28;20437;-52
2023/01/02 11:55:52;;;;;;;2.87;2.50;;;15.20;99.90;;;;;;5270417;28;20447;-49
2023/01/02 11:58:29;;;;;;;2.23;2.13;;;15.20;99.90;;;;;;5270656;28;20474;-51
2023/01/02 12:01:38;;;;;;;2.90;2.60;;;15.30;99.90;;;;;;5269582;28;20427;-51
2023/01/02 12:04:09;;;;;;;8.90;2.87;;;15.30;99.90;;;;;;5268423;28;20423;-51
2023/01/02 12:07:08;;;;;;;6.57;2.80;;;15.30;99.90;;;;;;5276311;28;20951;-49
2023/01/02 12:10:00;;;;;;;3.47;2.20;;;15.10;99.90;;;;;;5280690;28;20427;-51
2023/01/02 12:12:59;;;;;;;8.03;2.80;;;14.90;99.90;;;;;;5273254;28;20492;-50
2023/01/02 12:15:48;;;;;;;6.63;2.73;;;14.80;99.90;;;;;;5265282;28;20453;-49
2023/01/02 12:18:18;;;;;;;7.20;2.90;;;14.80;99.90;;;;;;5273342;28;20463;-51
2023/01/02 12:21:18;;;;;;;13.30;2.40;;;14.80;99.90;;;;;;5272435;28;20438;-51
2023/01/02 12:23:51;;;;;;;5.00;2.60;;;14.90;99.90;;;;;;5269122;28;20274;-52
2023/01/02 12:26:33;;;;;;;8.33;3.30;;;15.00;99.90;;;;;;5270858;28;21757;-50
2023/01/02 12:29:54;;;;;;;6.20;2.33;;;15.00;99.90;;;;;;5267946;28;20439;-52
2023/01/02 12:32:44;;;;;;;5.73;3.30;;;15.00;99.90;;;;;;5206956;28;20850;-50
2023/01/02 12:35:46;;;;;;;6.13;2.50;;;15.10;99.90;;;;;;5205030;28;20433;-51
2023/01/02 12:38:30;;;;;;;4.33;2.30;;;15.00;99.90;;;;;;5269713;28;20462;-52
2023/01/02 12:41:32;;;;;;;10.77;3.30;;;14.90;99.90;;;;;;5270624;28;20526;-49
2023/01/02 12:44:23;;;;;;;3.23;2.67;;;14.80;99.90;;;;;;5276680;28;20449;-51
2023/01/02 12:47:31;;;;;;;7.80;2.73;;;14.70;99.90;;;;;;5270406;28;20537;-53
2023/01/02 12:50:23;;;;;;;2.30;2.03;;;14.70;99.90;;;;;;5259654;28;21770;-50
2023/01/02 12:53:41;;;;;;;5.03;2.70;;;14.70;99.90;;;;;;5271149;28;20419;-52
2023/01/02 12:56:20;;;;;;;3.33;2.60;;;14.70;99.90;;;;;;5222555;28;20961;-51
2023/01/02 12:59:28;;;;;;;3.87;2.73;;;14.50;99.90;;;;;;5217290;28;20528;-49
2023/01/02 13:02:20;;;;;;;8.43;2.73;;;14.30;99.90;;;;;;5258327;28;20427;-52
2023/01/02 13:04:56;;;;;;;4.63;2.83;;;14.30;99.90;;;;;;5268068;28;20464;-52
2023/01/02 13:07:38;;;;;;;3.20;2.50;;;14.10;99.90;;;;;;5276077;28;20457;-56
2023/01/02 13:10:17;;;;;;;5.80;3.30;;;14.10;99.90;;;;;;5266934;28;20432;-49
2023/01/02 13:12:49;;;;;;;22.63;3.77;;;14.20;99.90;;;;;;5276151;28;20522;-50
2023/01/02 13:15:21;;;;;;;4.73;2.77;;;14.20;99.90;;;;;;5271683;28;20435;-51
2023/01/02 13:18:10;;;;;;;6.20;2.80;;;14.30;99.90;;;;;;5273247;28;20458;-49
2023/01/02 13:20:49;;;;;;;5.40;2.97;;;14.30;99.90;;;;;;5266865;28;20489;-50
2023/01/02 13:23:46;;;;;;;9.07;3.17;;;14.30;99.90;;;;;;5269235;28;20431;-51
2023/01/02 13:26:22;;;;;;;11.73;2.97;;;14.30;99.90;;;;;;5275071;28;20428;-50
2023/01/02 13:29:08;;;;;;;6.07;3.17;;;14.40;99.90;;;;;;5263567;28;20581;-53
2023/01/02 13:31:40;;;;;;;7.10;2.80;;;14.40;99.90;;;;;;5266038;28;20944;-52
2023/01/02 13:34:20;;;;;;;9.27;3.23;;;14.50;99.90;;;;;;5261559;28;20422;-51
2023/01/02 13:37:00;;;;;;;3.40;2.33;;;14.50;99.90;;;;;;5274184;28;20428;-51